createdAt,value
2019-04-22T00:00:36.725Z,63.60
2019-04-22T00:01:35.064Z,64.18
2019-04-22T00:03:47.522Z,64.75
2019-04-22T00:04:51.087Z,64.84
2019-04-22T00:07:03.311Z,64.28
2019-04-22T00:08:03.471Z,64.28
2019-04-22T00:09:11.098Z,64.47
2019-04-22T00:11:16.112Z,64.94
2019-04-22T00:12:11.214Z,64.18
2019-04-22T00:14:08.489Z,64.37
2019-04-22T00:15:08.045Z,64.28
2019-04-22T00:17:23.309Z,64.84
2019-04-22T00:18:40.400Z,64.84
2019-04-22T00:20:11.630Z,64.75
2019-04-22T00:21:12.734Z,64.65
2019-04-22T00:22:08.071Z,64.65
2019-04-22T00:23:04.062Z,64.94
2019-04-22T00:24:04.640Z,64.84
2019-04-22T00:25:23.580Z,65.13
2019-04-22T00:27:20.303Z,64.84
2019-04-22T00:28:16.021Z,64.56
2019-04-22T00:31:20.998Z,64.34
2019-04-22T00:33:24.956Z,64.53
2019-04-22T00:34:22.549Z,65.00
2019-04-22T00:36:20.624Z,65.38
2019-04-22T00:37:17.161Z,65.19
2019-04-22T00:39:28.430Z,65.38
2019-04-22T00:40:21.056Z,64.56
2019-04-22T00:42:28.934Z,65.32
2019-04-22T00:43:24.408Z,64.56
2019-04-22T00:45:34.389Z,64.72
2019-04-22T00:46:33.033Z,65.48
2019-04-22T00:47:32.363Z,65.29
2019-04-22T00:48:38.342Z,64.53
2019-04-22T00:50:34.781Z,65.58
2019-04-22T00:51:44.907Z,65.58
2019-04-22T00:53:35.868Z,65.38
2019-04-22T00:54:37.696Z,65.10
2019-04-22T00:56:42.159Z,65.58
2019-04-22T00:57:38.788Z,65.29
2019-04-22T00:59:50.301Z,65.77
2019-04-22T01:00:51.867Z,65.77
2019-04-22T01:02:46.088Z,64.90
2019-04-22T01:03:43.111Z,65.58
2019-04-22T01:05:40.792Z,65.77
2019-04-22T01:06:39.812Z,65.58
2019-04-22T01:08:53.741Z,65.77
2019-04-22T01:09:46.368Z,65.38
2019-04-22T01:10:49.477Z,65.10
2019-04-22T01:11:45.057Z,65.38
2019-04-22T01:12:44.277Z,65.38
2019-04-22T01:13:45.594Z,64.53
2019-04-22T01:14:41.663Z,65.38
2019-04-22T01:16:04.277Z,65.19
2019-04-22T01:16:53.760Z,64.72
2019-04-22T01:18:50.116Z,64.81
2019-04-22T01:19:56.213Z,64.81
2019-04-22T01:21:49.782Z,64.72
2019-04-22T01:22:56.291Z,64.62
2019-04-22T01:24:59.288Z,64.15
2019-04-22T01:25:51.811Z,65.10
2019-04-22T01:27:46.173Z,63.96
2019-04-22T01:28:39.214Z,64.43
2019-04-22T01:30:43.032Z,65.19
2019-04-22T01:31:35.257Z,65.54
2019-04-22T01:33:43.911Z,65.25
2019-04-22T01:34:51.631Z,65.73
2019-04-22T01:37:01.086Z,65.06
2019-04-22T01:37:58.939Z,64.87
2019-04-22T01:40:09.880Z,64.53
2019-04-22T01:41:20.207Z,65.38
2019-04-22T01:43:18.560Z,64.53
2019-04-22T01:46:25.270Z,65.10
2019-04-22T01:47:25.102Z,64.05
2019-04-22T01:48:17.627Z,64.62
2019-04-22T01:49:25.750Z,64.43
2019-04-22T01:50:19.574Z,64.78
2019-04-22T01:51:28.310Z,65.29
2019-04-22T01:53:22.682Z,64.81
2019-04-22T01:54:35.179Z,65.16
2019-04-22T01:56:27.277Z,65.25
2019-04-22T01:57:22.677Z,64.87
2019-04-22T01:58:18.392Z,65.73
2019-04-22T02:00:16.404Z,66.39
2019-04-22T02:01:30.661Z,65.54
2019-04-22T02:02:28.838Z,65.73
2019-04-22T02:03:26.426Z,65.83
2019-04-22T02:04:32.487Z,65.64
2019-04-22T02:05:23.911Z,65.83
2019-04-22T02:06:33.199Z,65.64
2019-04-22T02:07:27.738Z,65.73
2019-04-22T02:08:33.102Z,65.83
2019-04-22T02:09:31.678Z,65.54
2019-04-22T02:10:33.534Z,65.25
2019-04-22T02:11:35.217Z,64.50
2019-04-22T02:12:25.907Z,64.21
2019-04-22T02:13:30.776Z,64.78
2019-04-22T02:14:27.010Z,64.50
2019-04-22T02:15:29.192Z,64.31
2019-04-22T02:16:27.364Z,64.21
2019-04-22T02:17:31.498Z,64.21
2019-04-22T02:18:31.806Z,64.31
2019-04-22T02:19:30.350Z,63.73
2019-04-22T02:20:25.393Z,64.21
2019-04-22T02:21:20.198Z,64.59
2019-04-22T02:22:42.339Z,64.31
2019-04-22T02:23:45.179Z,64.87
2019-04-22T02:24:26.383Z,64.87
2019-04-22T02:25:35.839Z,64.69
2019-04-22T02:26:34.209Z,64.69
2019-04-22T02:27:37.807Z,64.21
2019-04-22T02:29:31.069Z,64.50
2019-04-22T02:30:44.950Z,64.50
2019-04-22T02:31:36.053Z,64.59
2019-04-22T02:32:38.933Z,65.73
2019-04-22T02:33:58.564Z,65.45
2019-04-22T02:34:46.413Z,65.45
2019-04-22T02:35:34.159Z,65.83
2019-04-22T02:39:23.697Z,66.02
2019-04-22T02:40:50.752Z,65.83
2019-04-22T02:42:46.707Z,65.22
2019-04-22T02:43:49.203Z,65.32
2019-04-22T02:44:33.329Z,65.51
2019-04-22T02:45:41.733Z,65.03
2019-04-22T02:48:48.353Z,65.51
2019-04-22T02:49:33.857Z,65.80
2019-04-22T02:50:33.846Z,66.36
2019-04-22T02:51:27.842Z,66.36
2019-04-22T02:52:31.077Z,67.03
2019-04-22T02:54:12.255Z,67.32
2019-04-22T02:55:33.007Z,67.13
2019-04-22T02:56:31.317Z,67.41
2019-04-22T02:58:47.588Z,67.32
2019-04-22T02:59:54.627Z,66.55
2019-04-22T03:00:40.264Z,67.13
2019-04-22T03:01:41.163Z,67.03
2019-04-22T03:03:41.807Z,66.08
2019-04-22T03:04:22.806Z,65.89
2019-04-22T03:05:36.387Z,65.60
2019-04-22T03:07:55.903Z,65.70
2019-04-22T03:08:30.261Z,65.70
2019-04-22T03:10:37.176Z,65.99
2019-04-22T03:11:33.457Z,65.70
2019-04-22T03:12:29.057Z,65.70
2019-04-22T03:13:40.487Z,66.55
2019-04-22T03:15:38.052Z,66.27
2019-04-22T03:16:33.324Z,66.17
2019-04-22T03:17:37.216Z,65.60
2019-04-22T03:19:44.335Z,65.70
2019-04-22T03:20:29.138Z,65.99
2019-04-22T03:21:33.761Z,66.08
2019-04-22T03:22:28.042Z,66.27
2019-04-22T03:24:36.265Z,65.51
2019-04-22T03:26:01.262Z,65.80
2019-04-22T03:26:31.784Z,66.36
2019-04-22T03:27:30.046Z,66.27
2019-04-22T03:28:43.212Z,66.05
2019-04-22T03:29:40.091Z,66.05
2019-04-22T03:32:56.307Z,65.60
2019-04-22T03:35:19.824Z,64.94
2019-04-22T03:38:51.719Z,64.27
2019-04-22T03:40:38.810Z,65.70
2019-04-22T03:42:45.720Z,64.65
2019-04-22T03:43:35.141Z,64.56
2019-04-22T03:45:28.230Z,65.22
2019-04-22T03:46:32.578Z,65.60
2019-04-22T03:47:36.690Z,66.24
2019-04-22T03:48:45.432Z,65.95
2019-04-22T03:49:37.256Z,66.80
2019-04-22T03:53:55.466Z,67.76
2019-04-22T03:54:40.005Z,68.23
2019-04-22T03:55:28.967Z,68.23
2019-04-22T03:57:07.195Z,68.52
2019-04-22T03:58:32.456Z,67.28
2019-04-22T03:59:48.136Z,67.66
2019-04-22T04:01:46.415Z,67.85
2019-04-22T04:02:38.863Z,67.57
2019-04-22T04:03:28.608Z,67.76
2019-04-22T04:04:35.999Z,67.09
2019-04-22T04:06:45.928Z,68.13
2019-04-22T04:07:45.611Z,68.04
2019-04-22T04:08:38.930Z,67.57
2019-04-22T04:09:33.300Z,67.94
2019-04-22T04:11:45.171Z,67.94
2019-04-22T04:12:28.389Z,68.23
2019-04-22T04:13:36.889Z,68.13
2019-04-22T04:14:35.909Z,68.04
2019-04-22T04:16:41.279Z,68.52
2019-04-22T04:17:37.752Z,68.52
2019-04-22T04:18:44.573Z,67.85
2019-04-22T04:19:45.930Z,68.23
2019-04-22T04:21:37.939Z,68.80
2019-04-22T04:23:37.841Z,67.94
2019-04-22T04:24:44.191Z,68.13
2019-04-22T04:26:48.128Z,68.13
2019-04-22T04:28:06.330Z,67.76
2019-04-22T04:29:51.466Z,67.38
2019-04-22T04:31:35.762Z,67.47
2019-04-22T04:35:06.281Z,67.94
2019-04-22T04:36:34.586Z,67.28
2019-04-22T04:37:46.752Z,67.57
2019-04-22T04:38:43.004Z,67.38
2019-04-22T04:39:40.528Z,66.52
2019-04-22T04:42:18.124Z,66.71
2019-04-22T04:43:35.403Z,67.57
2019-04-22T04:47:43.907Z,67.85
2019-04-22T04:48:43.924Z,68.13
2019-04-22T04:49:34.855Z,68.13
2019-04-22T04:50:42.331Z,67.38
2019-04-22T04:51:37.767Z,68.13
2019-04-22T04:52:50.848Z,67.38
2019-04-22T04:53:27.178Z,67.57
2019-04-22T05:01:35.465Z,68.07
2019-04-22T05:02:40.526Z,68.27
2019-04-22T05:03:39.730Z,68.17
2019-04-22T05:05:31.688Z,68.27
2019-04-22T05:07:36.107Z,67.98
2019-04-22T05:08:54.695Z,68.55
2019-04-22T05:09:29.614Z,68.65
2019-04-22T05:10:41.203Z,69.12
2019-04-22T05:12:45.071Z,69.31
2019-04-22T05:13:40.374Z,69.02
2019-04-22T05:16:34.557Z,69.69
2019-04-22T05:17:41.248Z,69.60
2019-04-22T05:18:40.541Z,70.07
2019-04-22T05:19:33.396Z,69.88
2019-04-22T05:21:24.259Z,69.21
2019-04-22T05:23:30.465Z,69.60
2019-04-22T05:24:31.419Z,68.93
2019-04-22T05:25:43.980Z,68.36
2019-04-22T05:28:23.695Z,68.93
2019-04-22T05:30:26.810Z,68.46
2019-04-22T05:31:35.556Z,68.30
2019-04-22T05:32:31.251Z,67.73
2019-04-22T05:33:30.591Z,68.21
2019-04-22T05:34:41.225Z,68.77
2019-04-22T05:35:26.335Z,68.87
2019-04-22T05:36:28.558Z,69.31
2019-04-22T05:37:29.488Z,69.54
2019-04-22T05:38:34.937Z,69.54
2019-04-22T05:39:24.589Z,69.82
2019-04-22T05:41:30.448Z,68.77
2019-04-22T05:42:26.369Z,69.06
2019-04-22T05:43:27.453Z,69.25
2019-04-22T05:44:29.418Z,68.77
2019-04-22T05:45:28.255Z,69.44
2019-04-22T05:46:28.556Z,69.92
2019-04-22T05:47:26.060Z,69.15
2019-04-22T05:48:27.403Z,68.87
2019-04-22T05:49:23.585Z,68.87
2019-04-22T05:50:23.866Z,69.35
2019-04-22T05:51:31.541Z,68.96
2019-04-22T05:52:29.928Z,69.35
2019-04-22T05:53:31.189Z,69.29
2019-04-22T05:54:27.860Z,69.29
2019-04-22T05:55:47.918Z,69.10
2019-04-22T05:56:34.246Z,68.71
2019-04-22T05:57:26.102Z,67.95
2019-04-22T05:58:32.935Z,68.52
2019-04-22T05:59:24.981Z,67.86
2019-04-22T06:00:37.022Z,68.05
2019-04-22T06:02:39.324Z,68.05
2019-04-22T06:03:35.325Z,67.67
2019-04-22T06:04:25.703Z,67.76
2019-04-22T06:05:24.930Z,68.08
2019-04-22T06:06:25.122Z,67.80
2019-04-22T06:07:29.514Z,67.80
2019-04-22T06:08:24.231Z,67.61
2019-04-22T06:09:38.912Z,67.70
2019-04-22T06:11:36.244Z,66.94
2019-04-22T06:12:23.452Z,66.50
2019-04-22T06:13:26.751Z,66.40
2019-04-22T06:14:20.387Z,66.50
2019-04-22T06:15:23.467Z,67.16
2019-04-22T06:16:31.103Z,66.40
2019-04-22T06:17:31.320Z,66.69
2019-04-22T06:18:27.281Z,67.07
2019-04-22T06:19:28.218Z,67.45
2019-04-22T06:20:23.760Z,67.39
2019-04-22T06:21:31.320Z,67.83
2019-04-22T06:25:47.868Z,67.39
2019-04-22T06:27:28.819Z,66.82
2019-04-22T06:28:35.279Z,66.15
2019-04-22T06:29:27.114Z,66.63
2019-04-22T06:30:41.488Z,66.63
2019-04-22T06:31:37.212Z,65.89
2019-04-22T06:33:27.381Z,67.14
2019-04-22T06:34:28.874Z,65.99
2019-04-22T06:36:29.492Z,65.70
2019-04-22T06:37:25.755Z,64.85
2019-04-22T06:38:43.178Z,65.33
2019-04-22T06:39:39.572Z,64.56
2019-04-22T06:40:29.204Z,62.46
2019-04-22T06:41:27.355Z,60.97
2019-04-22T06:42:28.273Z,60.87
2019-04-22T06:43:31.848Z,60.68
2019-04-22T06:46:29.862Z,59.53
2019-04-22T06:47:40.091Z,58.68
2019-04-22T06:48:30.066Z,58.68
2019-04-22T06:49:31.888Z,59.47
2019-04-22T06:50:33.932Z,59.34
2019-04-22T06:51:29.623Z,58.42
2019-04-22T06:52:22.019Z,59.19
2019-04-22T06:53:29.782Z,58.70
2019-04-22T06:54:28.875Z,58.61
2019-04-22T06:55:33.250Z,58.51
2019-04-22T06:56:21.872Z,58.61
2019-04-22T06:57:25.444Z,58.70
2019-04-22T06:58:42.574Z,59.19
2019-04-22T06:59:26.600Z,59.56
2019-04-22T07:01:27.660Z,58.33
2019-04-22T07:02:39.010Z,56.92
2019-04-22T07:04:28.201Z,57.97
2019-04-22T07:05:27.538Z,58.73
2019-04-22T07:06:37.249Z,58.23
2019-04-22T07:07:23.784Z,58.83
2019-04-22T07:08:59.538Z,58.26
2019-04-22T07:11:26.575Z,59.02
2019-04-22T07:13:27.459Z,58.36
2019-04-22T07:14:22.752Z,58.64
2019-04-22T07:15:45.566Z,58.16
2019-04-22T07:16:31.950Z,58.45
2019-04-22T07:18:33.083Z,58.45
2019-04-22T07:19:28.152Z,58.36
2019-04-22T07:20:30.422Z,58.07
2019-04-22T07:21:26.105Z,57.87
2019-04-22T07:22:30.611Z,57.40
2019-04-22T07:23:31.717Z,57.21
2019-04-22T07:25:23.438Z,57.78
2019-04-22T07:26:24.497Z,56.85
2019-04-22T07:27:40.470Z,57.04
2019-04-22T07:28:37.255Z,57.53
2019-04-22T07:29:30.969Z,58.93
2019-04-22T07:30:26.243Z,58.00
2019-04-22T07:31:29.955Z,57.14
2019-04-22T07:32:39.259Z,58.48
2019-04-22T07:33:34.355Z,57.53
2019-04-22T07:34:33.144Z,56.76
2019-04-22T07:35:32.167Z,56.67
2019-04-22T07:37:36.782Z,56.85
2019-04-22T07:38:26.650Z,56.76
2019-04-22T07:39:32.633Z,57.04
2019-04-22T07:40:26.973Z,55.80
2019-04-22T07:41:29.021Z,55.80
2019-04-22T07:43:41.902Z,57.26
2019-04-22T07:44:47.683Z,56.88
2019-04-22T07:45:29.552Z,56.31
2019-04-22T07:46:26.617Z,55.83
2019-04-22T07:48:33.878Z,55.93
2019-04-22T07:49:33.919Z,56.50
2019-04-22T07:51:28.717Z,56.21
2019-04-22T07:52:32.006Z,55.64
2019-04-22T07:53:23.028Z,56.40
2019-04-22T07:54:25.895Z,57.46
2019-04-22T07:55:27.327Z,56.60
2019-04-22T07:56:24.731Z,56.50
2019-04-22T07:57:32.470Z,56.31
2019-04-22T07:59:28.037Z,56.21
2019-04-22T08:00:34.395Z,56.50
2019-04-22T08:02:37.861Z,56.91
2019-04-22T08:03:47.709Z,57.68
2019-04-22T08:05:45.816Z,58.06
2019-04-22T08:06:36.224Z,58.44
2019-04-22T08:07:36.054Z,57.29
2019-04-22T08:08:37.318Z,56.91
2019-04-22T08:12:39.083Z,56.91
2019-04-22T08:13:38.788Z,57.48
2019-04-22T08:14:34.476Z,56.91
2019-04-22T08:15:41.768Z,56.65
2019-04-22T08:16:38.334Z,56.37
2019-04-22T08:18:34.329Z,55.51
2019-04-22T08:19:37.306Z,55.12
2019-04-22T08:20:39.178Z,55.31
2019-04-22T08:21:38.215Z,57.23
2019-04-22T08:22:39.936Z,56.94
2019-04-22T08:23:39.915Z,57.32
2019-04-22T08:25:38.839Z,56.01
2019-04-22T08:26:42.048Z,57.06
2019-04-22T08:27:39.537Z,57.16
2019-04-22T08:28:39.295Z,55.53
2019-04-22T08:30:00.105Z,55.05
2019-04-22T08:31:48.609Z,56.68
2019-04-22T08:33:35.369Z,56.39
2019-04-22T08:34:37.303Z,54.86
2019-04-22T08:35:52.150Z,55.85
2019-04-22T08:36:49.577Z,56.42
2019-04-22T08:37:49.270Z,56.71
2019-04-22T08:38:39.421Z,57.19
2019-04-22T08:39:35.824Z,56.81
2019-04-22T08:40:43.251Z,56.99
2019-04-22T08:42:50.310Z,55.85
2019-04-22T08:43:47.656Z,55.85
2019-04-22T08:44:56.981Z,56.81
2019-04-22T08:45:39.018Z,57.09
2019-04-22T08:47:38.452Z,56.93
2019-04-22T08:48:36.718Z,57.98
2019-04-22T08:49:42.577Z,58.08
2019-04-22T08:50:38.976Z,58.65
2019-04-22T08:51:36.016Z,56.45
2019-04-22T08:52:33.803Z,56.93
2019-04-22T08:53:41.501Z,56.64
2019-04-22T08:54:36.111Z,56.00
2019-04-22T08:55:40.394Z,56.76
2019-04-22T08:57:46.958Z,56.48
2019-04-22T08:59:37.391Z,56.38
2019-04-22T09:00:41.410Z,56.96
2019-04-22T09:01:32.987Z,55.07
2019-04-22T09:02:43.535Z,55.55
2019-04-22T09:03:39.747Z,53.82
2019-04-22T09:04:31.228Z,54.88
2019-04-22T09:05:52.134Z,54.97
2019-04-22T09:06:49.423Z,56.22
2019-04-22T09:07:39.729Z,55.16
2019-04-22T09:08:45.637Z,55.07
2019-04-22T09:09:42.352Z,55.00
2019-04-22T09:10:37.529Z,52.79
2019-04-22T09:11:41.998Z,55.10
2019-04-22T09:12:53.350Z,52.50
2019-04-22T09:13:35.531Z,53.36
2019-04-22T09:14:37.818Z,53.17
2019-04-22T09:15:34.490Z,53.08
2019-04-22T09:16:39.865Z,53.27
2019-04-22T09:17:34.776Z,54.13
2019-04-22T09:18:42.377Z,53.85
2019-04-22T09:19:38.483Z,54.04
2019-04-22T09:20:45.121Z,53.58
2019-04-22T09:21:38.929Z,54.80
2019-04-22T09:22:38.583Z,53.94
2019-04-22T09:24:35.685Z,55.12
2019-04-22T09:25:36.026Z,55.41
2019-04-22T09:26:36.251Z,53.97
2019-04-22T09:27:39.976Z,52.43
2019-04-22T09:28:37.796Z,49.93
2019-04-22T09:29:39.834Z,50.73
2019-04-22T09:30:40.500Z,51.88
2019-04-22T09:31:39.167Z,53.13
2019-04-22T09:32:38.281Z,53.70
2019-04-22T09:33:36.843Z,53.03
2019-04-22T09:34:40.247Z,54.02
2019-04-22T09:35:37.483Z,53.52
2019-04-22T09:37:01.543Z,52.26
2019-04-22T09:37:42.039Z,52.58
2019-04-22T09:38:38.277Z,50.66
2019-04-22T09:39:41.288Z,49.60
2019-04-22T09:40:34.608Z,51.43
2019-04-22T09:41:41.245Z,52.68
2019-04-22T09:42:39.687Z,51.33
2019-04-22T09:43:45.478Z,51.35
2019-04-22T09:45:41.856Z,52.12
2019-04-22T09:46:41.211Z,51.74
2019-04-22T09:47:40.876Z,52.12
2019-04-22T09:49:46.876Z,50.61
2019-04-22T09:51:37.345Z,50.51
2019-04-22T09:52:35.944Z,50.13
2019-04-22T09:54:51.052Z,48.49
2019-04-22T09:55:37.404Z,48.11
2019-04-22T09:56:38.779Z,48.49
2019-04-22T09:57:53.006Z,48.40
2019-04-22T09:58:39.405Z,50.06
2019-04-22T09:59:35.300Z,48.71
2019-04-22T10:00:42.689Z,49.68
2019-04-22T10:01:34.494Z,47.63
2019-04-22T10:02:42.694Z,46.11
2019-04-22T10:03:36.795Z,48.61
2019-04-22T10:04:39.505Z,49.87
2019-04-22T10:05:40.846Z,47.36
2019-04-22T10:06:54.214Z,44.86
2019-04-22T10:07:52.526Z,47.65
2019-04-22T10:08:40.720Z,47.39
2019-04-22T10:09:52.849Z,49.12
2019-04-22T10:10:48.977Z,48.54
2019-04-22T10:11:37.675Z,48.64
2019-04-22T10:12:43.178Z,48.06
2019-04-22T10:13:40.593Z,47.77
2019-04-22T10:14:38.418Z,47.97
2019-04-22T10:15:39.819Z,48.44
2019-04-22T10:16:53.951Z,48.25
2019-04-22T10:17:36.480Z,48.28
2019-04-22T10:18:38.694Z,47.12
2019-04-22T10:19:36.931Z,47.10
2019-04-22T10:20:38.173Z,47.22
2019-04-22T10:21:44.677Z,47.31
2019-04-22T10:22:39.961Z,47.31
2019-04-22T10:23:41.212Z,46.64
2019-04-22T10:24:37.023Z,46.35
2019-04-22T10:25:35.403Z,47.41
2019-04-22T10:26:39.530Z,46.73
2019-04-22T10:27:39.844Z,45.97
2019-04-22T10:28:40.024Z,46.06
2019-04-22T10:29:41.672Z,45.10
2019-04-22T10:30:43.945Z,42.40
2019-04-22T10:31:46.235Z,43.48
2019-04-22T10:32:40.287Z,41.55
2019-04-22T10:33:30.920Z,42.23
2019-04-22T10:34:26.051Z,41.94
2019-04-22T10:35:17.215Z,40.01
2019-04-22T10:36:13.130Z,42.93
2019-04-22T10:37:15.248Z,40.51
2019-04-22T10:38:12.468Z,39.74
2019-04-22T10:39:12.652Z,41.28
2019-04-22T10:40:13.627Z,40.70
2019-04-22T10:41:12.431Z,40.51
2019-04-22T10:42:13.374Z,41.30
2019-04-22T10:43:12.228Z,40.03
2019-04-22T10:44:13.059Z,39.64
2019-04-22T10:45:12.423Z,38.79
2019-04-22T10:46:13.892Z,41.20
2019-04-22T10:47:12.276Z,39.47
2019-04-22T10:48:12.456Z,38.51
2019-04-22T10:49:12.632Z,36.87
2019-04-22T10:50:12.476Z,35.90
2019-04-22T10:51:12.734Z,38.71
2019-04-22T10:52:12.934Z,40.75
2019-04-22T10:53:13.301Z,40.07
2019-04-22T10:54:13.576Z,37.95
2019-04-22T10:55:13.673Z,38.53
2019-04-22T10:56:12.761Z,39.87
2019-04-22T10:57:13.840Z,38.71
2019-04-22T10:58:12.848Z,39.11
2019-04-22T10:59:12.435Z,39.87
2019-04-22T11:00:13.623Z,39.03
2019-04-22T11:01:13.607Z,39.99
2019-04-22T11:02:13.660Z,40.19
2019-04-22T11:03:13.910Z,38.83
2019-04-22T11:04:13.293Z,38.85
2019-04-22T11:05:12.502Z,38.56
2019-04-22T11:06:12.516Z,40.40
2019-04-22T11:07:13.566Z,39.36
2019-04-22T11:08:22.539Z,40.63
2019-04-22T11:09:12.874Z,39.39
2019-04-22T11:10:27.796Z,37.55
2019-04-22T11:11:26.359Z,36.32
2019-04-22T11:12:17.674Z,37.48
2019-04-22T11:13:13.711Z,37.09
2019-04-22T11:14:12.908Z,36.70
2019-04-22T11:15:13.757Z,36.99
2019-04-22T11:16:13.796Z,38.25
2019-04-22T11:17:13.469Z,37.85
2019-04-22T11:18:13.488Z,39.11
2019-04-22T11:19:13.953Z,37.85
2019-04-22T11:20:13.453Z,38.79
2019-04-22T11:21:13.751Z,35.12
2019-04-22T11:22:18.769Z,33.86
2019-04-22T11:23:14.284Z,35.02
2019-04-22T11:24:12.769Z,33.37
2019-04-22T11:25:13.825Z,32.99
2019-04-22T11:26:12.802Z,32.51
2019-04-22T11:27:12.854Z,34.44
2019-04-22T11:28:13.690Z,32.31
2019-04-22T11:29:14.001Z,33.69
2019-04-22T11:30:13.856Z,32.42
2019-04-22T11:31:14.541Z,31.94
2019-04-22T11:32:12.985Z,31.36
2019-04-22T11:33:14.157Z,30.89
2019-04-22T11:34:13.047Z,31.23
2019-04-22T11:35:13.909Z,32.52
2019-04-22T11:36:13.597Z,29.52
2019-04-22T11:37:14.529Z,29.16
2019-04-22T11:38:13.064Z,28.11
2019-04-22T11:39:15.167Z,27.25
2019-04-22T11:40:19.256Z,28.23
2019-04-22T11:41:14.688Z,26.39
2019-04-22T11:42:14.030Z,25.02
2019-04-22T11:43:14.379Z,24.82
2019-04-22T11:44:13.068Z,27.44
2019-04-22T11:45:13.322Z,26.67
2019-04-22T11:46:13.405Z,27.83
2019-04-22T11:47:13.113Z,27.64
2019-04-22T11:48:13.288Z,27.83
2019-04-22T11:49:14.069Z,28.63
2019-04-22T11:50:13.165Z,29.11
2019-04-22T11:51:13.992Z,25.89
2019-04-22T11:52:14.854Z,25.09
2019-04-22T11:53:13.226Z,26.07
2019-04-22T11:54:14.613Z,27.82
2019-04-22T11:55:13.244Z,27.82
2019-04-22T11:56:13.272Z,27.90
2019-04-22T11:57:13.278Z,27.90
2019-04-22T11:58:14.752Z,28.66
2019-04-22T11:59:13.313Z,27.59
2019-04-22T12:00:14.588Z,28.47
2019-04-22T12:01:14.786Z,28.66
2019-04-22T12:02:16.116Z,27.11
2019-04-22T12:03:14.608Z,27.53
2019-04-22T12:04:13.810Z,27.92
2019-04-22T12:05:14.244Z,27.16
2019-04-22T12:06:13.594Z,24.37
2019-04-22T12:07:14.951Z,23.43
2019-04-22T12:08:13.468Z,22.58
2019-04-22T12:09:13.479Z,22.81
2019-04-22T12:10:24.747Z,21.55
2019-04-22T12:11:13.762Z,21.56
2019-04-22T12:12:13.956Z,19.91
2019-04-22T12:13:13.550Z,19.32
2019-04-22T12:14:13.926Z,20.50
2019-04-22T12:15:14.763Z,19.42
2019-04-22T12:16:13.679Z,20.01
2019-04-22T12:17:13.948Z,21.09
2019-04-22T12:18:15.162Z,21.48
2019-04-22T12:19:13.668Z,21.50
2019-04-22T12:20:14.560Z,19.94
2019-04-22T12:21:15.166Z,20.24
2019-04-22T12:22:15.242Z,20.94
2019-04-22T12:23:14.811Z,18.77
2019-04-22T12:24:15.056Z,19.77
2019-04-22T12:25:28.055Z,17.71
2019-04-22T12:26:17.522Z,17.91
2019-04-22T12:27:14.324Z,18.90
2019-04-22T12:28:15.074Z,17.33
2019-04-22T12:29:15.174Z,15.56
2019-04-22T12:30:14.798Z,15.55
2019-04-22T12:31:15.354Z,15.75
2019-04-22T12:32:13.942Z,15.55
2019-04-22T12:33:14.929Z,14.87
2019-04-22T12:34:15.361Z,15.36
2019-04-22T12:35:13.995Z,16.83
2019-04-22T12:36:14.930Z,17.33
2019-04-22T12:37:21.795Z,16.94
2019-04-22T12:38:15.279Z,16.35
2019-04-22T12:39:15.546Z,15.06
2019-04-22T12:40:25.985Z,14.86
2019-04-22T12:41:15.893Z,16.35
2019-04-22T12:42:15.340Z,15.55
2019-04-22T12:43:16.090Z,15.36
2019-04-22T12:44:15.015Z,15.67
2019-04-22T12:45:14.198Z,16.17
2019-04-22T12:46:14.515Z,16.07
2019-04-22T12:47:14.916Z,15.77
2019-04-22T12:48:14.968Z,15.08
2019-04-22T12:49:14.334Z,17.54
2019-04-22T12:50:20.512Z,17.35
2019-04-22T12:51:15.342Z,15.57
2019-04-22T12:52:24.128Z,17.74
2019-04-22T12:53:18.155Z,18.04
2019-04-22T12:54:15.165Z,15.28
2019-04-22T12:55:14.397Z,17.16
2019-04-22T12:56:15.399Z,17.16
2019-04-22T12:57:14.770Z,17.76
2019-04-22T12:58:15.689Z,15.89
2019-04-22T12:59:14.486Z,15.99
2019-04-22T13:00:15.633Z,15.00
2019-04-22T13:01:15.167Z,15.58
2019-04-22T13:02:15.489Z,16.17
2019-04-22T13:03:15.824Z,15.58
2019-04-22T13:04:17.601Z,16.09
2019-04-22T13:05:14.612Z,14.41
2019-04-22T13:06:14.637Z,15.30
2019-04-22T13:07:15.708Z,15.49
2019-04-22T13:08:15.824Z,14.20
2019-04-22T13:09:17.542Z,15.09
2019-04-22T13:10:15.642Z,15.69
2019-04-22T13:11:18.502Z,15.69
2019-04-22T13:12:15.212Z,15.50
2019-04-22T13:13:15.425Z,14.41
2019-04-22T13:14:15.031Z,14.20
2019-04-22T13:15:16.030Z,15.88
2019-04-22T13:16:15.371Z,16.47
2019-04-22T13:17:15.723Z,17.45
2019-04-22T13:18:27.010Z,15.48
2019-04-22T13:19:17.208Z,16.28
2019-04-22T13:20:16.957Z,16.28
2019-04-22T13:21:15.064Z,16.58
2019-04-22T13:22:14.970Z,16.28
2019-04-22T13:23:15.710Z,15.00
2019-04-22T13:24:18.024Z,16.39
2019-04-22T13:25:15.585Z,14.71
2019-04-22T13:26:15.211Z,15.30
2019-04-22T13:27:15.129Z,14.42
2019-04-22T13:28:15.530Z,14.02
2019-04-22T13:29:15.129Z,14.01
2019-04-22T13:30:16.415Z,13.61
2019-04-22T13:31:16.049Z,15.28
2019-04-22T13:32:16.560Z,15.38
2019-04-22T13:33:16.724Z,15.08
2019-04-22T13:34:24.341Z,16.26
2019-04-22T13:35:18.458Z,14.58
2019-04-22T13:36:15.927Z,15.47
2019-04-22T13:37:16.702Z,14.67
2019-04-22T13:38:15.313Z,14.38
2019-04-22T13:39:16.724Z,15.77
2019-04-22T13:40:15.335Z,16.56
2019-04-22T13:41:24.004Z,16.57
2019-04-22T13:42:19.390Z,15.08
2019-04-22T13:43:16.767Z,13.21
2019-04-22T13:44:16.643Z,14.39
2019-04-22T13:45:15.818Z,14.88
2019-04-22T13:46:16.771Z,14.98
2019-04-22T13:47:31.749Z,15.09
2019-04-22T13:48:35.880Z,14.30
2019-04-22T13:49:53.899Z,15.49
2019-04-22T13:50:49.910Z,14.21
2019-04-22T13:51:45.197Z,14.41
2019-04-22T13:52:48.579Z,15.10
2019-04-22T13:54:48.405Z,15.69
2019-04-22T13:56:40.172Z,14.49
2019-04-22T13:57:34.370Z,14.79
2019-04-22T13:58:31.528Z,14.00
2019-04-22T13:59:24.687Z,13.79
2019-04-22T14:00:16.332Z,15.58
2019-04-22T14:01:16.537Z,14.50
2019-04-22T14:02:20.330Z,15.58
2019-04-22T14:03:24.533Z,15.69
2019-04-22T14:05:19.829Z,14.98
2019-04-22T14:06:20.683Z,15.78
2019-04-22T14:08:24.972Z,14.48
2019-04-22T14:09:24.476Z,15.48
2019-04-22T14:10:24.848Z,14.99
2019-04-22T14:11:34.536Z,15.11
2019-04-22T14:12:24.545Z,15.30
2019-04-22T14:13:24.002Z,13.43
2019-04-22T14:14:24.143Z,13.71
2019-04-22T14:15:24.341Z,14.18
2019-04-22T14:16:24.820Z,16.52
2019-04-22T14:17:25.025Z,16.09
2019-04-22T14:18:25.225Z,16.27
2019-04-22T14:19:24.063Z,17.93
2019-04-22T14:20:26.977Z,18.50
2019-04-22T14:21:24.935Z,19.57
2019-04-22T14:22:24.119Z,18.68
2019-04-22T14:23:24.658Z,20.82
2019-04-22T14:24:24.153Z,18.77
2019-04-22T14:25:24.841Z,19.83
2019-04-22T14:26:25.020Z,20.90
2019-04-22T14:27:37.282Z,19.15
2019-04-22T14:28:25.488Z,20.42
2019-04-22T14:29:24.239Z,20.90
2019-04-22T14:30:24.510Z,20.61
2019-04-22T14:31:24.373Z,20.61
2019-04-22T14:32:27.994Z,19.81
2019-04-22T14:33:24.603Z,18.93
2019-04-22T14:34:24.791Z,19.90
2019-04-22T14:35:25.001Z,20.87
2019-04-22T14:36:25.388Z,19.70
2019-04-22T14:37:24.418Z,22.16
2019-04-22T14:38:25.844Z,21.75
2019-04-22T14:39:24.408Z,21.17
2019-04-22T14:40:26.279Z,22.06
2019-04-22T14:41:49.766Z,20.79
2019-04-22T14:42:45.654Z,20.48
2019-04-22T14:43:57.945Z,21.86
2019-04-22T14:45:58.698Z,22.07
2019-04-22T14:46:58.584Z,21.59
2019-04-22T14:47:52.206Z,20.33
2019-04-22T14:48:50.832Z,21.42
2019-04-22T14:49:47.383Z,19.98
2019-04-22T14:50:46.762Z,18.52
2019-04-22T14:51:48.967Z,17.94
2019-04-22T14:52:49.139Z,17.35
2019-04-22T14:53:45.857Z,17.86
2019-04-22T14:54:38.794Z,17.67
2019-04-22T14:55:29.051Z,18.08
2019-04-22T14:56:24.694Z,18.88
2019-04-22T14:57:26.733Z,16.82
2019-04-22T14:58:24.734Z,17.11
2019-04-22T14:59:25.051Z,17.52
2019-04-22T15:00:26.137Z,16.14
2019-04-22T15:01:24.780Z,15.56
2019-04-22T15:02:25.579Z,15.57
2019-04-22T15:03:25.973Z,15.88
2019-04-22T15:04:24.831Z,15.48
2019-04-22T15:05:26.059Z,14.21
2019-04-22T15:06:26.294Z,14.31
2019-04-22T15:07:25.230Z,15.00
2019-04-22T15:08:24.897Z,15.10
2019-04-22T15:09:26.038Z,14.12
2019-04-22T15:10:26.113Z,13.71
2019-04-22T15:11:24.953Z,13.71
2019-04-22T15:12:31.203Z,15.48
2019-04-22T15:13:25.351Z,14.99
2019-04-22T15:14:25.639Z,14.79
2019-04-22T15:15:25.026Z,14.70
2019-04-22T15:16:25.862Z,14.89
2019-04-22T15:17:25.071Z,15.09